Time;durP1;ratioP1;P1;durP2;ratioP2;P2;SDS_P1;SDS_P2;PMS_P1;PMS_P2;Temp;Humidity;BMP_temperature;BMP_pressure;BME280_temperature;BME280_humidity;BME280_pressure;Samples;Min_cycle;Max_cycle;Signal;HPM_P1;HPM_P2
2022/03/01 00:02:15;;;;;;;4.65;2.53;;;;;;;;;;6268132;22;20007;-36
2022/03/01 00:04:41;;;;;;;4.00;2.63;;;;;;;;;;6268092;22;20078;-40
2022/03/01 00:07:07;;;;;;;3.42;2.35;;;;;;;;;;6267933;22;20007;-36
2022/03/01 00:09:33;;;;;;;3.08;2.35;;;;;;;;;;6268207;22;20007;-41
2022/03/01 00:11:59;;;;;;;4.13;2.17;;;;;;;;;;6267710;22;20076;-39
2022/03/01 00:14:24;;;;;;;3.75;2.47;;;;;;;;;;6267963;22;20007;-41
2022/03/01 00:16:50;;;;;;;3.95;2.50;;;;;;;;;;6267807;22;19999;-41
2022/03/01 00:19:15;;;;;;;3.20;2.28;;;;;;;;;;6267609;22;20823;-41
2022/03/01 00:21:40;;;;;;;3.60;2.55;;;;;;;;;;6268064;22;20007;-41
2022/03/01 00:24:06;;;;;;;4.22;2.78;;;;;;;;;;6267616;22;20014;-41
2022/03/01 00:26:32;;;;;;;5.28;2.50;;;;;;;;;;6268074;22;20000;-39
2022/03/01 00:28:57;;;;;;;3.30;2.22;;;;;;;;;;6268360;22;20134;-40
2022/03/01 00:31:22;;;;;;;3.08;2.33;;;;;;;;;;6267469;22;20007;-41
2022/03/01 00:33:48;;;;;;;3.97;2.63;;;;;;;;;;6268047;22;20008;-35
2022/03/01 00:36:13;;;;;;;4.00;2.35;;;;;;;;;;6267057;22;20517;-36
2022/03/01 00:38:39;;;;;;;4.13;2.50;;;;;;;;;;6267434;22;20030;-40
2022/03/01 00:41:05;;;;;;;2.88;2.00;;;;;;;;;;6240206;22;20011;-38
2022/03/01 00:43:30;;;;;;;2.92;1.77;;;;;;;;;;6266996;22;20010;-39
2022/03/01 00:45:55;;;;;;;2.80;1.90;;;;;;;;;;6268038;22;20008;-42
2022/03/01 00:48:21;;;;;;;3.25;2.08;;;;;;;;;;6267864;22;19999;-40
2022/03/01 00:50:47;;;;;;;2.80;1.88;;;;;;;;;;6267795;22;20444;-41
2022/03/01 00:53:12;;;;;;;6.28;2.30;;;;;;;;;;6267483;22;20456;-41
2022/03/01 00:55:38;;;;;;;3.38;1.90;;;;;;;;;;6267587;22;19999;-40
2022/03/01 00:58:03;;;;;;;2.70;1.90;;;;;;;;;;6267917;22;20075;-40
2022/03/01 01:00:29;;;;;;;2.88;2.00;;;;;;;;;;6267416;22;20481;-40
2022/03/01 01:02:55;;;;;;;2.92;2.20;;;;;;;;;;6267677;22;20085;-40
2022/03/01 01:05:22;;;;;;;3.65;2.30;;;;;;;;;;6267383;22;20004;-41
2022/03/01 01:07:47;;;;;;;3.53;2.13;;;;;;;;;;6267777;22;20057;-42
2022/03/01 01:10:13;;;;;;;3.25;2.20;;;;;;;;;;6239865;22;20003;-40
2022/03/01 01:12:39;;;;;;;2.25;1.70;;;;;;;;;;6267547;22;20011;-37
2022/03/01 01:15:05;;;;;;;2.33;1.88;;;;;;;;;;6267735;22;20019;-41
2022/03/01 01:17:31;;;;;;;2.70;1.88;;;;;;;;;;6267803;22;20393;-41
2022/03/01 01:19:56;;;;;;;2.92;2.13;;;;;;;;;;6267617;22;20011;-41
2022/03/01 01:22:40;;;;;;;4.05;2.13;;;;;;;;;;6267646;22;20007;-35
2022/03/01 01:25:13;;;;;;;3.25;1.98;;;;;;;;;;6267803;22;20061;-39
2022/03/01 01:27:40;;;;;;;2.88;1.83;;;;;;;;;;6267319;22;20012;-40
2022/03/01 01:30:07;;;;;;;2.78;2.13;;;;;;;;;;6267374;22;20004;-40
2022/03/01 01:32:33;;;;;;;2.55;1.88;;;;;;;;;;6267571;22;20004;-40
2022/03/01 01:34:59;;;;;;;2.78;1.80;;;;;;;;;;6267472;22;20073;-38
2022/03/01 01:37:24;;;;;;;2.58;1.95;;;;;;;;;;6267165;22;20678;-40
2022/03/01 01:39:49;;;;;;;2.85;2.00;;;;;;;;;;6267769;22;20509;-41
2022/03/01 01:42:15;;;;;;;2.15;1.40;;;;;;;;;;6266789;22;20048;-39
2022/03/01 01:44:42;;;;;;;2.42;1.83;;;;;;;;;;6267343;22;20083;-42
2022/03/01 01:47:07;;;;;;;2.85;1.75;;;;;;;;;;6267006;22;20004;-35
2022/03/01 01:49:33;;;;;;;1.95;1.60;;;;;;;;;;6267335;22;20425;-42
2022/03/01 01:51:59;;;;;;;1.80;1.50;;;;;;;;;;6266499;22;20172;-39
2022/03/01 01:54:24;;;;;;;1.98;1.70;;;;;;;;;;6267273;22;20333;-38
2022/03/01 01:56:50;;;;;;;2.10;1.42;;;;;;;;;;6266980;22;20003;-38
2022/03/01 01:59:15;;;;;;;2.45;1.63;;;;;;;;;;6267281;22;20512;-41
2022/03/01 02:01:41;;;;;;;1.77;1.30;;;;;;;;;;6267319;22;20019;-42
2022/03/01 02:04:06;;;;;;;2.95;1.88;;;;;;;;;;6267017;22;20346;-41
2022/03/01 02:06:36;;;;;;;1.55;1.40;;;;;;;;;;6267231;22;20062;-40
2022/03/01 02:09:01;;;;;;;2.47;1.85;;;;;;;;;;6240462;22;20034;-41
2022/03/01 02:11:27;;;;;;;1.88;1.50;;;;;;;;;;6266909;22;20016;-41
2022/03/01 02:13:52;;;;;;;2.13;1.73;;;;;;;;;;6266917;22;20323;-38
2022/03/01 02:16:18;;;;;;;2.38;1.80;;;;;;;;;;6266657;22;20096;-37
2022/03/01 02:18:43;;;;;;;2.03;1.70;;;;;;;;;;6267073;22;20003;-37
2022/03/01 02:21:09;;;;;;;1.33;1.23;;;;;;;;;;6239444;22;20008;-35
2022/03/01 02:23:34;;;;;;;2.35;1.50;;;;;;;;;;6266750;22;20353;-38
2022/03/01 02:26:01;;;;;;;2.05;1.55;;;;;;;;;;6266738;22;20369;-41
2022/03/01 02:28:26;;;;;;;1.83;1.33;;;;;;;;;;6266341;22;20008;-40
2022/03/01 02:30:52;;;;;;;1.83;1.40;;;;;;;;;;6266503;22;20106;-38
2022/03/01 02:33:17;;;;;;;2.08;1.38;;;;;;;;;;6266641;22;20045;-38
2022/03/01 02:35:42;;;;;;;1.85;1.40;;;;;;;;;;6266336;22;20370;-41
2022/03/01 02:38:08;;;;;;;2.30;1.60;;;;;;;;;;6266345;22;20007;-38
2022/03/01 02:40:33;;;;;;;2.28;1.52;;;;;;;;;;6266834;22;20018;-38
2022/03/01 02:42:59;;;;;;;1.60;1.40;;;;;;;;;;6266347;22;20011;-38
2022/03/01 02:45:24;;;;;;;1.33;1.15;;;;;;;;;;6266539;22;20007;-39
2022/03/01 02:47:50;;;;;;;1.77;1.23;;;;;;;;;;6266879;22;20000;-42
2022/03/01 02:50:16;;;;;;;1.50;1.20;;;;;;;;;;6266302;22;20438;-40
2022/03/01 02:52:42;;;;;;;1.75;1.30;;;;;;;;;;6266911;22;20391;-40
2022/03/01 02:55:08;;;;;;;1.63;1.10;;;;;;;;;;6266286;22;20011;-37
2022/03/01 02:57:33;;;;;;;1.63;1.20;;;;;;;;;;6266798;22;20018;-43
2022/03/01 03:06:43;;;;;;;1.88;1.27;;;;;;;;;;6266839;22;20096;-40
2022/03/01 03:09:08;;;;;;;2.85;1.33;;;;;;;;;;6238724;22;20031;-38
2022/03/01 03:11:33;;;;;;;1.55;1.15;;;;;;;;;;6266672;22;20018;-40
2022/03/01 03:13:59;;;;;;;1.40;1.10;;;;;;;;;;6266891;22;20004;-41
2022/03/01 03:16:27;;;;;;;1.25;1.10;;;;;;;;;;6266643;22;20061;-40
2022/03/01 03:18:52;;;;;;;1.20;0.95;;;;;;;;;;6266841;22;20086;-39
2022/03/01 03:21:18;;;;;;;1.40;1.25;;;;;;;;;;6266514;22;20004;-39
2022/03/01 03:23:43;;;;;;;1.33;0.95;;;;;;;;;;6266164;22;20004;-40
2022/03/01 03:26:08;;;;;;;2.22;1.10;;;;;;;;;;6266270;22;20008;-37
2022/03/01 03:28:34;;;;;;;1.85;1.27;;;;;;;;;;6266689;22;20004;-38
2022/03/01 03:31:00;;;;;;;1.25;0.93;;;;;;;;;;6239205;22;20409;-38
2022/03/01 03:33:25;;;;;;;1.33;0.80;;;;;;;;;;6266270;22;20008;-41
2022/03/01 03:35:50;;;;;;;1.27;1.10;;;;;;;;;;6266221;22;20072;-37
2022/03/01 03:38:16;;;;;;;1.25;0.95;;;;;;;;;;6266285;22;20427;-36
2022/03/01 03:40:42;;;;;;;1.10;0.90;;;;;;;;;;6265904;22;20039;-40
2022/03/01 03:43:07;;;;;;;1.50;1.00;;;;;;;;;;6266538;22;20536;-35
2022/03/01 03:45:33;;;;;;;1.70;1.48;;;;;;;;;;6266672;22;20011;-38
2022/03/01 03:47:58;;;;;;;2.83;2.15;;;;;;;;;;6266011;22;20030;-37
2022/03/01 03:50:23;;;;;;;3.28;2.72;;;;;;;;;;6266274;22;20123;-38
2022/03/01 03:52:49;;;;;;;3.17;2.88;;;;;;;;;;6267994;22;20010;-39
2022/03/01 03:55:14;;;;;;;3.60;3.10;;;;;;;;;;6267850;22;20008;-36
2022/03/01 03:57:40;;;;;;;3.70;3.30;;;;;;;;;;6268233;22;20057;-41
2022/03/01 04:00:07;;;;;;;3.55;3.17;;;;;;;;;;6268350;22;20011;-42
2022/03/01 04:02:33;;;;;;;3.53;2.97;;;;;;;;;;6268014;22;20446;-39
2022/03/01 04:04:58;;;;;;;3.33;3.03;;;;;;;;;;6268325;22;20014;-41
2022/03/01 04:07:24;;;;;;;3.42;2.95;;;;;;;;;;6268004;22;20122;-38
2022/03/01 04:09:49;;;;;;;3.58;3.20;;;;;;;;;;6267910;22;20011;-41
2022/03/01 04:12:15;;;;;;;3.90;3.50;;;;;;;;;;6268233;22;20030;-41
2022/03/01 04:14:41;;;;;;;3.30;3.00;;;;;;;;;;6268335;22;20025;-41
2022/03/01 04:17:08;;;;;;;3.90;3.42;;;;;;;;;;6268210;22;20317;-41
2022/03/01 04:19:34;;;;;;;3.70;3.28;;;;;;;;;;6267679;22;20401;-39
2022/03/01 04:21:59;;;;;;;3.63;3.08;;;;;;;;;;6268114;22;20026;-37
2022/03/01 04:24:25;;;;;;;3.72;3.33;;;;;;;;;;6267245;22;20100;-40
2022/03/01 04:26:50;;;;;;;4.97;3.53;;;;;;;;;;6268203;22;20007;-39
2022/03/01 04:29:16;;;;;;;3.38;3.03;;;;;;;;;;6267963;22;20004;-40
2022/03/01 04:31:41;;;;;;;3.67;3.28;;;;;;;;;;6267466;22;20342;-41
2022/03/01 04:34:07;;;;;;;3.60;3.30;;;;;;;;;;6215738;22;20000;-42
2022/03/01 04:36:32;;;;;;;3.67;3.20;;;;;;;;;;6267547;22;20383;-42
2022/03/01 04:38:58;;;;;;;3.75;3.35;;;;;;;;;;6240616;22;20008;-41
2022/03/01 04:41:23;;;;;;;3.17;2.88;;;;;;;;;;6267740;22;20014;-38
2022/03/01 04:43:49;;;;;;;3.92;3.42;;;;;;;;;;6267653;22;20011;-41
2022/03/01 04:46:15;;;;;;;3.40;3.10;;;;;;;;;;6267843;22;20314;-41
2022/03/01 04:48:41;;;;;;;3.70;3.22;;;;;;;;;;6267937;22;20000;-42
2022/03/01 04:51:06;;;;;;;3.88;3.33;;;;;;;;;;6267710;22;20039;-41
2022/03/01 04:53:31;;;;;;;3.75;3.13;;;;;;;;;;6267919;22;20014;-39
2022/03/01 04:55:57;;;;;;;3.65;3.35;;;;;;;;;;6267384;22;20565;-39
2022/03/01 04:58:22;;;;;;;3.45;3.15;;;;;;;;;;6267483;22;20010;-41
2022/03/01 05:00:48;;;;;;;3.22;2.83;;;;;;;;;;6267762;22;20370;-40
2022/03/01 05:03:13;;;;;;;3.95;3.40;;;;;;;;;;6268043;22;20434;-37
2022/03/01 05:05:39;;;;;;;3.20;2.90;;;;;;;;;;6267393;22;20003;-41
2022/03/01 05:08:04;;;;;;;3.10;2.75;;;;;;;;;;6267404;22;20057;-40
2022/03/01 05:10:30;;;;;;;2.85;2.65;;;;;;;;;;6267047;22;20012;-40
2022/03/01 05:12:57;;;;;;;2.97;2.67;;;;;;;;;;6267484;22;20010;-36
2022/03/01 05:15:25;;;;;;;3.95;3.05;;;;;;;;;;6240189;22;20006;-39
2022/03/01 05:17:50;;;;;;;3.50;2.58;;;;;;;;;;6267634;22;20794;-38
2022/03/01 05:20:16;;;;;;;6.25;2.92;;;;;;;;;;6267215;22;20007;-41
2022/03/01 05:22:42;;;;;;;4.10;2.70;;;;;;;;;;6266222;22;20888;-36
2022/03/01 05:25:09;;;;;;;4.70;2.65;;;;;;;;;;6266637;22;20089;-40
2022/03/01 05:27:35;;;;;;;7.03;3.10;;;;;;;;;;6267138;22;19999;-37
2022/03/01 05:30:01;;;;;;;3.25;2.63;;;;;;;;;;6267105;22;20004;-37
2022/03/01 05:32:27;;;;;;;4.80;2.35;;;;;;;;;;6267092;22;20004;-40
2022/03/01 05:34:52;;;;;;;3.15;2.22;;;;;;;;;;6267552;22;20418;-39
2022/03/01 05:37:18;;;;;;;5.63;2.30;;;;;;;;;;6266927;22;20482;-39
2022/03/01 05:39:44;;;;;;;5.10;2.53;;;;;;;;;;6266482;22;20006;-38
2022/03/01 05:42:09;;;;;;;8.07;2.70;;;;;;;;;;6267461;22;20546;-39
2022/03/01 05:44:35;;;;;;;4.25;2.72;;;;;;;;;;6267001;22;20004;-39
2022/03/01 05:47:00;;;;;;;6.20;2.67;;;;;;;;;;6267266;22;20004;-39
2022/03/01 05:49:26;;;;;;;9.82;2.90;;;;;;;;;;6267067;22;20000;-41
2022/03/01 05:51:52;;;;;;;9.00;2.88;;;;;;;;;;6266585;22;20019;-38
2022/03/01 05:54:17;;;;;;;9.27;2.45;;;;;;;;;;6267215;22;20000;-40
2022/03/01 05:56:42;;;;;;;11.35;3.42;;;;;;;;;;6266992;22;20326;-38
2022/03/01 05:59:08;;;;;;;13.75;2.92;;;;;;;;;;6267442;22;20007;-38
2022/03/01 06:01:33;;;;;;;22.10;3.10;;;;;;;;;;6266468;22;20008;-37
2022/03/01 06:03:59;;;;;;;11.15;3.00;;;;;;;;;;6266703;22;20012;-36
2022/03/01 06:06:25;;;;;;;11.38;3.00;;;;;;;;;;6265245;22;20003;-38
2022/03/01 06:08:50;;;;;;;10.65;2.45;;;;;;;;;;6266022;22;20003;-36
2022/03/01 06:11:15;;;;;;;10.50;2.30;;;;;;;;;;6266101;22;20008;-35
2022/03/01 06:13:43;;;;;;;5.97;2.42;;;;;;;;;;6266304;22;20428;-34
2022/03/01 06:16:09;;;;;;;9.82;2.13;;;;;;;;;;6265737;22;20008;-40
2022/03/01 06:18:34;;;;;;;10.30;2.53;;;;;;;;;;6265169;22;20471;-38
2022/03/01 06:21:01;;;;;;;6.78;1.85;;;;;;;;;;6265156;22;20011;-38
2022/03/01 06:23:27;;;;;;;6.75;2.33;;;;;;;;;;6264978;22;20051;-41
2022/03/01 06:25:52;;;;;;;7.93;2.30;;;;;;;;;;6236967;22;20016;-39
2022/03/01 06:28:18;;;;;;;8.30;2.50;;;;;;;;;;6265148;22;20011;-39
2022/03/01 06:30:43;;;;;;;4.97;2.13;;;;;;;;;;6264617;22;20008;-37
2022/03/01 06:33:09;;;;;;;7.30;2.78;;;;;;;;;;6264683;22;20008;-39
2022/03/01 06:35:34;;;;;;;6.60;2.33;;;;;;;;;;6266328;22;19999;-39
2022/03/01 06:38:00;;;;;;;3.72;1.80;;;;;;;;;;6266301;22;20010;-38
2022/03/01 06:40:25;;;;;;;6.55;2.47;;;;;;;;;;6265283;22;20011;-41
2022/03/01 06:42:51;;;;;;;4.90;2.60;;;;;;;;;;6266605;22;20003;-40
2022/03/01 06:45:16;;;;;;;7.70;2.13;;;;;;;;;;6266175;22;20000;-39
2022/03/01 06:47:42;;;;;;;6.32;2.10;;;;;;;;;;6265476;22;20354;-40
2022/03/01 06:50:08;;;;;;;4.45;2.38;;;;;;;;;;6265262;22;20458;-37
2022/03/01 06:52:34;;;;;;;7.57;2.10;;;;;;;;;;6266209;22;20003;-38
2022/03/01 06:55:01;;;;;;;8.77;2.63;;;;;;;;;;6237824;22;20007;-34
2022/03/01 06:57:26;;;;;;;5.68;2.30;;;;;;;;;;6266386;22;20000;-41
2022/03/01 06:59:53;;;;;;;4.72;2.28;;;;;;;;;;6266109;22;20003;-39
2022/03/01 07:02:19;;;;;;;8.77;2.40;;;;;;;;;;6266547;22;20007;-37
2022/03/01 07:04:44;;;;;;;5.40;2.00;;;;;;;;;;6266479;22;20014;-41
2022/03/01 07:07:10;;;;;;;4.05;1.88;;;;;;;;;;6265746;22;19996;-35
2022/03/01 07:09:35;;;;;;;3.95;2.13;;;;;;;;;;6266279;22;20007;-37
2022/03/01 07:12:01;;;;;;;4.15;1.92;;;;;;;;;;6266262;22;20076;-40
2022/03/01 07:14:26;;;;;;;5.47;1.80;;;;;;;;;;6266467;22;20004;-41
2022/03/01 07:16:52;;;;;;;6.38;1.90;;;;;;;;;;6266578;22;20070;-39
2022/03/01 07:19:17;;;;;;;4.43;1.70;;;;;;;;;;6266751;22;20014;-40
2022/03/01 07:21:43;;;;;;;4.60;2.30;;;;;;;;;;6266501;22;20496;-39
2022/03/01 07:24:09;;;;;;;4.47;2.05;;;;;;;;;;6266150;22;20007;-39
2022/03/01 07:26:34;;;;;;;2.78;1.60;;;;;;;;;;6268271;22;20015;-39
2022/03/01 07:28:59;;;;;;;2.95;2.13;;;;;;;;;;6268844;22;20055;-40
2022/03/01 07:31:25;;;;;;;3.67;1.90;;;;;;;;;;6267964;22;20031;-40
2022/03/01 07:33:50;;;;;;;3.72;1.80;;;;;;;;;;6268246;22;20350;-39
2022/03/01 07:36:16;;;;;;;3.85;1.77;;;;;;;;;;6267939;22;19999;-36
2022/03/01 07:38:41;;;;;;;4.75;2.10;;;;;;;;;;6268177;22;20008;-36
2022/03/01 07:41:07;;;;;;;3.92;2.00;;;;;;;;;;6267655;22;20003;-39
2022/03/01 07:43:32;;;;;;;3.45;2.17;;;;;;;;;;6266472;22;20039;-36
2022/03/01 07:45:58;;;;;;;3.95;2.17;;;;;;;;;;6267709;22;20401;-41
2022/03/01 07:48:23;;;;;;;3.15;1.83;;;;;;;;;;6267313;22;20100;-42
2022/03/01 07:50:49;;;;;;;5.72;2.10;;;;;;;;;;6266658;22;20019;-40
2022/03/01 07:53:16;;;;;;;4.70;1.88;;;;;;;;;;6267891;22;20007;-38
2022/03/01 07:55:42;;;;;;;3.17;1.85;;;;;;;;;;6267493;22;20000;-38
2022/03/01 07:58:07;;;;;;;2.72;1.80;;;;;;;;;;6267308;22;20000;-37
2022/03/01 08:00:33;;;;;;;3.17;1.77;;;;;;;;;;6265836;22;20754;-36
2022/03/01 08:02:59;;;;;;;5.20;1.77;;;;;;;;;;6265992;22;20004;-41
2022/03/01 08:05:24;;;;;;;6.53;2.25;;;;;;;;;;6265449;22;20018;-39
2022/03/01 08:07:50;;;;;;;4.75;1.83;;;;;;;;;;6238603;22;20057;-36
2022/03/01 08:10:15;;;;;;;5.28;1.95;;;;;;;;;;6266398;22;20012;-38
2022/03/01 08:12:41;;;;;;;6.03;2.10;;;;;;;;;;6266925;22;20008;-38
2022/03/01 08:15:07;;;;;;;4.65;2.22;;;;;;;;;;6267395;22;20008;-39
2022/03/01 08:17:33;;;;;;;9.38;2.05;;;;;;;;;;6266915;22;20050;-35
2022/03/01 08:19:58;;;;;;;8.50;2.10;;;;;;;;;;6265902;22;20427;-39
2022/03/01 08:22:24;;;;;;;8.63;2.30;;;;;;;;;;6265936;22;20378;-40
2022/03/01 08:24:50;;;;;;;4.22;2.17;;;;;;;;;;6265424;22;20020;-38
2022/03/01 08:27:16;;;;;;;9.85;2.13;;;;;;;;;;6265887;22;20083;-39
2022/03/01 08:29:41;;;;;;;3.92;1.83;;;;;;;;;;6266343;22;20339;-37
2022/03/01 08:32:07;;;;;;;4.60;1.80;;;;;;;;;;6266784;22;20446;-41
2022/03/01 08:34:32;;;;;;;5.97;2.10;;;;;;;;;;6267075;22;20007;-41
2022/03/01 08:43:42;;;;;;;2.42;1.90;;;;;;;;;;6267093;22;20534;-38
2022/03/01 08:46:11;;;;;;;4.95;2.08;;;;;;;;;;6266769;22;20007;-39
2022/03/01 08:48:37;;;;;;;3.70;1.63;;;;;;;;;;6238385;22;20573;-37
2022/03/01 08:51:03;;;;;;;2.90;1.80;;;;;;;;;;6265676;22;20011;-39
2022/03/01 08:53:28;;;;;;;3.63;1.80;;;;;;;;;;6266734;22;20006;-41
2022/03/01 08:55:53;;;;;;;8.20;2.22;;;;;;;;;;6267191;22;20061;-36
2022/03/01 08:58:19;;;;;;;8.30;1.55;;;;;;;;;;6267485;22;20354;-34
2022/03/01 09:00:45;;;;;;;6.22;1.85;;;;;;;;;;6267634;22;20003;-35
2022/03/01 09:03:11;;;;;;;2.38;1.52;;;;;;;;;;6267569;22;20089;-41
2022/03/01 09:05:36;;;;;;;2.58;1.60;;;;;;;;;;6267215;22;20019;-35
2022/03/01 09:08:02;;;;;;;5.28;2.00;;;;;;;;;;6267701;22;20031;-39
2022/03/01 09:10:28;;;;;;;3.67;2.13;;;;;;;;;;6266854;22;20442;-39
2022/03/01 09:12:53;;;;;;;3.40;1.40;;;;;;;;;;6267384;22;20030;-39
2022/03/01 09:15:19;;;;;;;3.13;1.85;;;;;;;;;;6265978;22;20095;-38
2022/03/01 09:17:45;;;;;;;3.25;1.65;;;;;;;;;;6239817;22;20433;-38
2022/03/01 09:20:11;;;;;;;3.55;1.70;;;;;;;;;;6267394;22;20377;-40
2022/03/01 09:22:36;;;;;;;3.30;1.70;;;;;;;;;;6267581;22;20741;-39
2022/03/01 09:25:04;;;;;;;5.38;1.80;;;;;;;;;;6267039;22;20446;-35
2022/03/01 09:27:30;;;;;;;5.28;1.98;;;;;;;;;;6266784;22;20003;-37
2022/03/01 09:29:55;;;;;;;3.70;1.80;;;;;;;;;;6267302;22;20020;-40
2022/03/01 09:32:21;;;;;;;2.72;1.40;;;;;;;;;;6266930;22;20007;-36
2022/03/01 09:34:46;;;;;;;7.88;1.88;;;;;;;;;;6267357;22;20057;-40
2022/03/01 09:37:12;;;;;;;5.65;4.07;;;;;;;;;;6266858;22;20446;-38
2022/03/01 09:39:37;;;;;;;6.38;4.90;;;;;;;;;;6265890;22;20003;-40
2022/03/01 09:42:03;;;;;;;10.18;4.68;;;;;;;;;;6266127;22;20492;-39
2022/03/01 09:44:28;;;;;;;6.15;5.10;;;;;;;;;;6266624;22;20034;-41
2022/03/01 09:46:54;;;;;;;7.03;5.05;;;;;;;;;;6239689;22;20322;-41
2022/03/01 09:49:19;;;;;;;7.13;5.75;;;;;;;;;;6266059;22;20008;-38
2022/03/01 09:51:45;;;;;;;7.28;5.30;;;;;;;;;;6265817;22;20023;-38
2022/03/01 09:54:10;;;;;;;6.68;5.53;;;;;;;;;;6265854;22;20014;-39
2022/03/01 09:56:36;;;;;;;7.32;6.05;;;;;;;;;;6267037;22;20440;-40
2022/03/01 09:59:02;;;;;;;8.13;5.75;;;;;;;;;;6265126;22;20015;-40
2022/03/01 10:01:27;;;;;;;6.63;5.43;;;;;;;;;;6264762;22;20007;-40
2022/03/01 10:03:53;;;;;;;6.78;6.00;;;;;;;;;;6264285;22;20367;-39
2022/03/01 10:06:21;;;;;;;6.53;5.65;;;;;;;;;;6263006;22;20000;-36
2022/03/01 10:08:54;;;;;;;7.28;6.40;;;;;;;;;;6264304;22;20022;-36
2022/03/01 10:11:20;;;;;;;9.68;6.00;;;;;;;;;;6264684;22;20019;-34
2022/03/01 10:13:46;;;;;;;6.80;6.00;;;;;;;;;;6266347;22;20078;-40
2022/03/01 10:16:13;;;;;;;7.03;5.75;;;;;;;;;;6266359;22;20502;-39
2022/03/01 10:18:40;;;;;;;9.38;6.43;;;;;;;;;;6266005;22;20477;-39
2022/03/01 10:21:12;;;;;;;7.45;5.80;;;;;;;;;;6266007;22;20091;-36
2022/03/01 10:23:41;;;;;;;6.95;5.40;;;;;;;;;;6266823;22;20061;-39
2022/03/01 10:26:11;;;;;;;6.93;5.75;;;;;;;;;;6266486;22;20026;-38
2022/03/01 10:28:37;;;;;;;6.97;5.53;;;;;;;;;;6266240;22;20014;-36
2022/03/01 10:31:14;;;;;;;6.28;5.43;;;;;;;;;;6266567;22;20039;-35
2022/03/01 10:33:51;;;;;;;5.70;5.10;;;;;;;;;;6266032;22;20485;-37
2022/03/01 10:36:20;;;;;;;8.07;5.50;;;;;;;;;;6266097;22;20038;-35
2022/03/01 10:38:56;;;;;;;6.03;5.15;;;;;;;;;;6214281;22;20008;-34
2022/03/01 10:41:29;;;;;;;6.97;6.10;;;;;;;;;;6265644;22;20004;-40
2022/03/01 10:43:57;;;;;;;6.60;5.50;;;;;;;;;;6266115;22;20384;-40
2022/03/01 10:46:23;;;;;;;6.40;5.53;;;;;;;;;;6266214;22;20018;-41
2022/03/01 10:48:57;;;;;;;6.20;5.22;;;;;;;;;;6265776;22;20024;-40
2022/03/01 10:51:22;;;;;;;6.75;5.55;;;;;;;;;;6239880;22;20011;-39
2022/03/01 10:53:48;;;;;;;5.25;4.75;;;;;;;;;;6266000;22;20000;-41
2022/03/01 10:56:14;;;;;;;5.78;5.13;;;;;;;;;;6266203;22;20030;-40
2022/03/01 10:58:41;;;;;;;7.10;5.53;;;;;;;;;;6265278;22;20035;-39
2022/03/01 11:01:07;;;;;;;5.55;4.70;;;;;;;;;;6264958;22;20046;-33
2022/03/01 11:03:32;;;;;;;6.88;4.88;;;;;;;;;;6264999;22;20083;-34
2022/03/01 11:05:58;;;;;;;5.68;4.50;;;;;;;;;;6264943;22;20003;-40
2022/03/01 11:08:32;;;;;;;5.93;4.90;;;;;;;;;;6266174;22;20082;-33
2022/03/01 11:10:58;;;;;;;4.85;4.35;;;;;;;;;;6265926;22;20008;-41
2022/03/01 11:17:02;;;;;;;5.45;4.40;;;;;;;;;;6265203;22;20046;-38
2022/03/01 11:20:00;;;;;;;4.97;4.47;;;;;;;;;;6216677;22;20035;-41
2022/03/01 11:22:46;;;;;;;4.88;4.18;;;;;;;;;;6265122;22;20012;-40
2022/03/01 11:25:21;;;;;;;8.13;4.63;;;;;;;;;;6265403;22;20007;-39
2022/03/01 11:27:48;;;;;;;7.47;4.00;;;;;;;;;;6265585;22;20083;-37
2022/03/01 11:30:14;;;;;;;6.05;4.72;;;;;;;;;;6266045;22;20000;-41
2022/03/01 11:32:45;;;;;;;6.28;4.47;;;;;;;;;;6265620;22;20015;-40
2022/03/01 11:35:22;;;;;;;6.68;4.50;;;;;;;;;;6265647;22;20016;-36
2022/03/01 11:38:18;;;;;;;6.22;4.50;;;;;;;;;;6265672;22;20015;-37
2022/03/01 11:40:46;;;;;;;7.03;4.30;;;;;;;;;;6265839;22;20015;-38
2022/03/01 11:43:12;;;;;;;12.02;4.05;;;;;;;;;;6265366;22;20078;-42
2022/03/01 11:45:38;;;;;;;9.55;4.05;;;;;;;;;;6265610;22;20415;-40
2022/03/01 11:48:13;;;;;;;9.23;4.20;;;;;;;;;;6265844;22;20010;-39
2022/03/01 11:50:43;;;;;;;9.40;4.05;;;;;;;;;;6265290;22;20447;-39
2022/03/01 11:53:09;;;;;;;7.78;4.15;;;;;;;;;;6265981;22;20826;-36
2022/03/01 11:55:42;;;;;;;5.47;3.85;;;;;;;;;;6238543;22;20083;-38
2022/03/01 11:58:08;;;;;;;;;;;;;;;;;;6266141;22;20457;-40
2022/03/01 12:00:34;;;;;;;8.80;3.72;;;;;;;;;;6238216;22;19981;-37
2022/03/01 12:03:00;;;;;;;7.45;3.63;;;;;;;;;;6238084;22;20439;-40
2022/03/01 12:05:26;;;;;;;17.05;4.25;;;;;;;;;;6238190;22;20026;-40
2022/03/01 12:07:52;;;;;;;7.55;4.20;;;;;;;;;;6265940;22;20011;-42
2022/03/01 12:10:22;;;;;;;9.13;3.80;;;;;;;;;;6237957;22;20031;-39
2022/03/01 12:12:48;;;;;;;5.40;3.65;;;;;;;;;;6267178;22;20026;-38
2022/03/01 12:15:16;;;;;;;6.85;4.13;;;;;;;;;;6267621;22;20004;-41
2022/03/01 12:17:46;;;;;;;6.53;4.40;;;;;;;;;;6241087;22;20008;-40
2022/03/01 12:20:14;;;;;;;4.45;3.63;;;;;;;;;;6267385;22;20446;-38
2022/03/01 12:22:59;;;;;;;5.32;3.65;;;;;;;;;;6240410;22;20035;-39
2022/03/01 12:25:26;;;;;;;4.40;3.42;;;;;;;;;;6266883;22;20008;-39
2022/03/01 12:27:52;;;;;;;5.07;3.30;;;;;;;;;;6267626;22;20554;-36
2022/03/01 12:30:19;;;;;;;5.75;3.53;;;;;;;;;;6267898;22;20014;-42
2022/03/01 12:32:58;;;;;;;3.80;3.10;;;;;;;;;;6267560;22;20010;-42
2022/03/01 12:35:24;;;;;;;4.18;3.28;;;;;;;;;;6266216;22;20003;-39
2022/03/01 12:37:50;;;;;;;3.90;3.17;;;;;;;;;;6267409;22;20014;-41
2022/03/01 12:40:29;;;;;;;3.97;3.20;;;;;;;;;;6267291;22;20019;-42
2022/03/01 12:43:01;;;;;;;3.83;3.25;;;;;;;;;;6267114;22;20008;-39
2022/03/01 12:45:34;;;;;;;8.50;3.60;;;;;;;;;;6267185;22;20004;-42
2022/03/01 12:48:00;;;;;;;4.45;2.80;;;;;;;;;;6267415;22;20008;-38
2022/03/01 12:50:25;;;;;;;4.20;3.30;;;;;;;;;;6266487;22;20438;-41
2022/03/01 12:52:55;;;;;;;3.47;2.60;;;;;;;;;;6267143;22;20004;-38
2022/03/01 12:55:20;;;;;;;3.65;2.92;;;;;;;;;;6267436;22;20023;-41
2022/03/01 12:57:46;;;;;;;3.60;2.85;;;;;;;;;;6267074;22;20008;-40
2022/03/01 13:00:12;;;;;;;4.60;2.92;;;;;;;;;;6267480;22;20008;-36
2022/03/01 13:09:21;;;;;;;6.35;2.95;;;;;;;;;;6266892;22;20129;-42
2022/03/01 13:11:46;;;;;;;3.40;2.97;;;;;;;;;;6267059;22;20608;-38
2022/03/01 13:14:16;;;;;;;4.18;2.97;;;;;;;;;;6266812;22;20003;-40
2022/03/01 13:16:48;;;;;;;4.10;2.85;;;;;;;;;;6266847;22;20015;-40
2022/03/01 13:19:15;;;;;;;4.38;2.88;;;;;;;;;;6267186;22;20393;-41
2022/03/01 13:21:46;;;;;;;4.22;3.22;;;;;;;;;;6266440;22;20035;-34
2022/03/01 13:24:12;;;;;;;3.38;2.42;;;;;;;;;;6266799;22;20027;-42
2022/03/01 13:26:37;;;;;;;5.45;3.75;;;;;;;;;;6266980;22;20011;-41
2022/03/01 13:29:15;;;;;;;4.00;2.90;;;;;;;;;;6267139;22;20446;-41
2022/03/01 13:31:41;;;;;;;4.22;2.80;;;;;;;;;;6266716;22;20083;-39
2022/03/01 13:34:07;;;;;;;4.80;3.22;;;;;;;;;;6266666;22;20053;-40
2022/03/01 13:36:38;;;;;;;3.35;2.72;;;;;;;;;;6265856;22;19999;-40
2022/03/01 13:39:11;;;;;;;4.72;2.95;;;;;;;;;;6267311;22;20008;-40
2022/03/01 13:41:46;;;;;;;3.97;2.80;;;;;;;;;;6266567;22;20010;-39
2022/03/01 13:44:33;;;;;;;3.63;2.45;;;;;;;;;;6267071;22;20099;-37
2022/03/01 13:46:58;;;;;;;4.97;2.90;;;;;;;;;;6266893;22;20434;-39
2022/03/01 13:49:33;;;;;;;3.65;3.03;;;;;;;;;;6266557;22;20035;-41
2022/03/01 13:52:16;;;;;;;4.43;2.90;;;;;;;;;;6266487;22;20042;-39
2022/03/01 13:54:49;;;;;;;4.25;2.88;;;;;;;;;;6266442;22;20354;-41
2022/03/01 13:57:34;;;;;;;3.40;2.75;;;;;;;;;;6266819;22;20058;-42
2022/03/01 13:59:59;;;;;;;3.70;2.85;;;;;;;;;;6239250;22;20003;-34
2022/03/01 14:02:25;;;;;;;4.18;2.92;;;;;;;;;;6266869;22;20069;-38
2022/03/01 14:05:04;;;;;;;5.22;3.05;;;;;;;;;;6266635;22;20008;-41
2022/03/01 14:07:29;;;;;;;5.90;3.42;;;;;;;;;;6266297;22;20743;-37
2022/03/01 14:09:55;;;;;;;6.13;3.35;;;;;;;;;;6266460;22;20007;-40
2022/03/01 14:12:41;;;;;;;5.20;3.00;;;;;;;;;;6266116;22;20041;-37
2022/03/01 14:15:07;;;;;;;6.18;3.30;;;;;;;;;;6266435;22;20885;-35
2022/03/01 14:17:32;;;;;;;4.32;2.75;;;;;;;;;;6265820;22;20453;-42
2022/03/01 14:19:58;;;;;;;3.60;2.65;;;;;;;;;;6265975;22;20000;-41
2022/03/01 14:22:24;;;;;;;3.65;2.80;;;;;;;;;;6266138;22;20336;-39
2022/03/01 14:24:56;;;;;;;4.07;2.90;;;;;;;;;;6265083;22;20086;-39
2022/03/01 14:27:21;;;;;;;3.05;2.67;;;;;;;;;;6238465;22;19999;-35
2022/03/01 14:29:46;;;;;;;4.05;2.50;;;;;;;;;;6266098;22;20083;-41
2022/03/01 14:32:12;;;;;;;7.53;2.90;;;;;;;;;;6265843;22;20011;-35
2022/03/01 14:34:39;;;;;;;3.00;2.20;;;;;;;;;;6264422;22;20011;-41
2022/03/01 14:37:04;;;;;;;5.50;2.75;;;;;;;;;;6265630;22;20000;-39
2022/03/01 14:39:30;;;;;;;4.20;2.65;;;;;;;;;;6265648;22;20019;-36
2022/03/01 14:41:55;;;;;;;4.97;2.70;;;;;;;;;;6266056;22;20074;-39
2022/03/01 14:44:21;;;;;;;3.47;2.88;;;;;;;;;;6266147;22;20003;-41
2022/03/01 14:46:46;;;;;;;4.93;2.45;;;;;;;;;;6265057;22;20015;-38
2022/03/01 14:49:12;;;;;;;4.45;2.80;;;;;;;;;;6265361;22;19999;-40
2022/03/01 14:51:37;;;;;;;3.55;2.72;;;;;;;;;;6265429;22;20039;-41
2022/03/01 14:54:04;;;;;;;3.17;2.38;;;;;;;;;;6265348;22;20457;-39
2022/03/01 14:56:29;;;;;;;3.35;2.38;;;;;;;;;;6265202;22;20015;-37
2022/03/01 14:58:55;;;;;;;3.85;2.40;;;;;;;;;;6265680;22;20046;-36
2022/03/01 15:01:20;;;;;;;4.25;3.03;;;;;;;;;;6266096;22;20008;-40
2022/03/01 15:03:46;;;;;;;4.28;2.58;;;;;;;;;;6266042;22;20003;-38
2022/03/01 15:06:11;;;;;;;8.07;2.50;;;;;;;;;;6264095;22;20008;-42